sensor_id;sensor_type;location;lat;lon;timestamp;pressure;altitude;pressure_sealevel;temperature;humidity
13348;BME280;6743;49.934;9.138;2024-02-23T00:00:13;98144.34;;;8.90;100.00
13348;BME280;6743;49.934;9.138;2024-02-23T00:02:39;98155.50;;;8.86;100.00
13348;BME280;6743;49.934;9.138;2024-02-23T00:05:06;98166.09;;;8.86;100.00
13348;BME280;6743;49.934;9.138;2024-02-23T00:07:32;98175.84;;;8.85;100.00
13348;BME280;6743;49.934;9.138;2024-02-23T00:09:58;98178.09;;;8.82;100.00
13348;BME280;6743;49.934;9.138;2024-02-23T00:12:24;98144.13;;;8.72;100.00
13348;BME280;6743;49.934;9.138;2024-02-23T00:14:50;98174.44;;;8.76;100.00
13348;BME280;6743;49.934;9.138;2024-02-23T00:17:19;98191.12;;;8.77;100.00
13348;BME280;6743;49.934;9.138;2024-02-23T00:19:45;98201.28;;;8.73;100.00
13348;BME280;6743;49.934;9.138;2024-02-23T00:22:12;98200.47;;;8.73;100.00
13348;BME280;6743;49.934;9.138;2024-02-23T00:24:42;98197.22;;;8.71;100.00
13348;BME280;6743;49.934;9.138;2024-02-23T00:27:08;98219.59;;;8.68;100.00
13348;BME280;6743;49.934;9.138;2024-02-23T00:29:34;98228.72;;;8.65;100.00
13348;BME280;6743;49.934;9.138;2024-02-23T00:32:01;98239.72;;;8.62;100.00
13348;BME280;6743;49.934;9.138;2024-02-23T00:34:28;98248.84;;;8.60;100.00
13348;BME280;6743;49.934;9.138;2024-02-23T00:36:56;98251.91;;;8.57;100.00
13348;BME280;6743;49.934;9.138;2024-02-23T00:39:22;98273.88;;;8.57;100.00
13348;BME280;6743;49.934;9.138;2024-02-23T00:41:48;98270.78;;;8.54;100.00
13348;BME280;6743;49.934;9.138;2024-02-23T00:44:14;98271.81;;;8.53;100.00
13348;BME280;6743;49.934;9.138;2024-02-23T00:46:40;98279.72;;;8.53;100.00
13348;BME280;6743;49.934;9.138;2024-02-23T00:49:06;98280.34;;;8.48;100.00
13348;BME280;6743;49.934;9.138;2024-02-23T00:51:33;98273.59;;;8.46;100.00
13348;BME280;6743;49.934;9.138;2024-02-23T00:53:59;98269.34;;;8.45;100.00
13348;BME280;6743;49.934;9.138;2024-02-23T00:56:25;98276.03;;;8.41;100.00
13348;BME280;6743;49.934;9.138;2024-02-23T00:58:53;98274.41;;;8.40;100.00
13348;BME280;6743;49.934;9.138;2024-02-23T01:01:21;98283.34;;;8.39;100.00
13348;BME280;6743;49.934;9.138;2024-02-23T01:03:47;98291.69;;;8.36;100.00
13348;BME280;6743;49.934;9.138;2024-02-23T01:06:13;98286.16;;;8.30;100.00
13348;BME280;6743;49.934;9.138;2024-02-23T01:08:40;98301.37;;;8.28;100.00
13348;BME280;6743;49.934;9.138;2024-02-23T01:11:07;98305.03;;;8.27;100.00
13348;BME280;6743;49.934;9.138;2024-02-23T01:13:40;98290.53;;;8.17;100.00
13348;BME280;6743;49.934;9.138;2024-02-23T01:16:06;98311.31;;;8.26;100.00
13348;BME280;6743;49.934;9.138;2024-02-23T01:18:35;98314.97;;;8.25;100.00
13348;BME280;6743;49.934;9.138;2024-02-23T01:21:01;98302.16;;;8.16;100.00
13348;BME280;6743;49.934;9.138;2024-02-23T01:23:27;98315.75;;;8.19;100.00
13348;BME280;6743;49.934;9.138;2024-02-23T01:25:54;98299.91;;;8.19;100.00
13348;BME280;6743;49.934;9.138;2024-02-23T01:28:24;98297.88;;;8.15;100.00
13348;BME280;6743;49.934;9.138;2024-02-23T01:30:50;98327.94;;;8.14;100.00
13348;BME280;6743;49.934;9.138;2024-02-23T01:33:16;98330.75;;;8.12;100.00
13348;BME280;6743;49.934;9.138;2024-02-23T01:35:42;98342.94;;;8.07;100.00
13348;BME280;6743;49.934;9.138;2024-02-23T01:38:08;98346.75;;;8.04;100.00
13348;BME280;6743;49.934;9.138;2024-02-23T01:40:34;98346.94;;;8.03;100.00
13348;BME280;6743;49.934;9.138;2024-02-23T01:43:02;98349.38;;;7.98;100.00
13348;BME280;6743;49.934;9.138;2024-02-23T01:45:28;98333.72;;;7.96;100.00
13348;BME280;6743;49.934;9.138;2024-02-23T01:47:55;98315.63;;;7.93;100.00
13348;BME280;6743;49.934;9.138;2024-02-23T01:50:21;98336.94;;;7.91;100.00
13348;BME280;6743;49.934;9.138;2024-02-23T01:52:47;98344.63;;;7.86;100.00
13348;BME280;6743;49.934;9.138;2024-02-23T01:55:13;98345.41;;;7.80;100.00
13348;BME280;6743;49.934;9.138;2024-02-23T01:57:39;98355.56;;;7.83;100.00
13348;BME280;6743;49.934;9.138;2024-02-23T02:00:07;98363.91;;;7.80;100.00
13348;BME280;6743;49.934;9.138;2024-02-23T02:02:35;98356.97;;;7.79;100.00
13348;BME280;6743;49.934;9.138;2024-02-23T02:05:01;98369.72;;;7.76;100.00
13348;BME280;6743;49.934;9.138;2024-02-23T02:07:28;98374.00;;;7.77;100.00
13348;BME280;6743;49.934;9.138;2024-02-23T02:09:54;98371.56;;;7.75;100.00
13348;BME280;6743;49.934;9.138;2024-02-23T02:12:26;98389.03;;;7.76;100.00
13348;BME280;6743;49.934;9.138;2024-02-23T02:14:52;98392.66;;;7.75;100.00
13348;BME280;6743;49.934;9.138;2024-02-23T02:17:20;98400.00;;;7.73;100.00
13348;BME280;6743;49.934;9.138;2024-02-23T02:19:46;98397.12;;;7.75;100.00
13348;BME280;6743;49.934;9.138;2024-02-23T02:22:13;98413.38;;;7.72;100.00
13348;BME280;6743;49.934;9.138;2024-02-23T02:24:39;98407.44;;;7.70;100.00
13348;BME280;6743;49.934;9.138;2024-02-23T02:27:07;98405.00;;;7.68;100.00
13348;BME280;6743;49.934;9.138;2024-02-23T02:29:34;98420.00;;;7.68;100.00
13348;BME280;6743;49.934;9.138;2024-02-23T02:32:00;98428.75;;;7.68;100.00
13348;BME280;6743;49.934;9.138;2024-02-23T02:34:28;98432.78;;;7.64;100.00
13348;BME280;6743;49.934;9.138;2024-02-23T02:36:54;98432.72;;;7.58;100.00
13348;BME280;6743;49.934;9.138;2024-02-23T02:39:20;98427.59;;;7.49;100.00
13348;BME280;6743;49.934;9.138;2024-02-23T02:41:48;98424.31;;;7.47;100.00
13348;BME280;6743;49.934;9.138;2024-02-23T02:44:14;98434.88;;;7.47;100.00
13348;BME280;6743;49.934;9.138;2024-02-23T02:46:40;98446.81;;;7.43;100.00
13348;BME280;6743;49.934;9.138;2024-02-23T02:49:06;98441.91;;;7.40;100.00
13348;BME280;6743;49.934;9.138;2024-02-23T02:51:32;98451.84;;;7.38;100.00
13348;BME280;6743;49.934;9.138;2024-02-23T02:53:58;98450.56;;;7.34;100.00
13348;BME280;6743;49.934;9.138;2024-02-23T02:56:24;98458.25;;;7.29;100.00
13348;BME280;6743;49.934;9.138;2024-02-23T02:58:50;98473.19;;;7.22;100.00
13348;BME280;6743;49.934;9.138;2024-02-23T03:01:16;98474.81;;;7.23;100.00
13348;BME280;6743;49.934;9.138;2024-02-23T03:03:42;98469.53;;;7.23;100.00
13348;BME280;6743;49.934;9.138;2024-02-23T03:06:08;98477.00;;;7.20;100.00
13348;BME280;6743;49.934;9.138;2024-02-23T03:08:35;98476.75;;;7.15;100.00
13348;BME280;6743;49.934;9.138;2024-02-23T03:11:01;98479.75;;;7.11;100.00
13348;BME280;6743;49.934;9.138;2024-02-23T03:13:27;98473.84;;;7.09;100.00
13348;BME280;6743;49.934;9.138;2024-02-23T03:15:53;98479.31;;;7.08;100.00
13348;BME280;6743;49.934;9.138;2024-02-23T03:18:19;98481.12;;;7.07;100.00
13348;BME280;6743;49.934;9.138;2024-02-23T03:20:45;98486.13;;;7.02;100.00
13348;BME280;6743;49.934;9.138;2024-02-23T03:23:11;98481.44;;;6.98;100.00
13348;BME280;6743;49.934;9.138;2024-02-23T03:25:38;98476.53;;;6.95;100.00
13348;BME280;6743;49.934;9.138;2024-02-23T03:28:04;98481.97;;;6.93;100.00
13348;BME280;6743;49.934;9.138;2024-02-23T03:30:30;98478.91;;;6.90;100.00
13348;BME280;6743;49.934;9.138;2024-02-23T03:32:56;98492.25;;;6.88;100.00
13348;BME280;6743;49.934;9.138;2024-02-23T03:35:22;98505.19;;;6.83;100.00
13348;BME280;6743;49.934;9.138;2024-02-23T03:37:48;98513.91;;;6.84;100.00
13348;BME280;6743;49.934;9.138;2024-02-23T03:40:14;98504.53;;;6.81;100.00
13348;BME280;6743;49.934;9.138;2024-02-23T03:42:41;98514.91;;;6.83;100.00
13348;BME280;6743;49.934;9.138;2024-02-23T03:45:07;98516.25;;;6.79;100.00
13348;BME280;6743;49.934;9.138;2024-02-23T03:47:33;98520.69;;;6.78;100.00
13348;BME280;6743;49.934;9.138;2024-02-23T03:49:59;98527.81;;;6.78;100.00
13348;BME280;6743;49.934;9.138;2024-02-23T03:52:25;98528.59;;;6.78;100.00
13348;BME280;6743;49.934;9.138;2024-02-23T03:54:51;98531.06;;;6.80;100.00
13348;BME280;6743;49.934;9.138;2024-02-23T03:57:19;98536.06;;;6.75;100.00
13348;BME280;6743;49.934;9.138;2024-02-23T03:59:52;98538.06;;;6.72;100.00
13348;BME280;6743;49.934;9.138;2024-02-23T04:02:18;98526.69;;;6.72;100.00
13348;BME280;6743;49.934;9.138;2024-02-23T04:04:44;98524.06;;;6.72;100.00
13348;BME280;6743;49.934;9.138;2024-02-23T04:07:10;98519.62;;;6.72;100.00
13348;BME280;6743;49.934;9.138;2024-02-23T04:09:36;98530.97;;;6.73;100.00
13348;BME280;6743;49.934;9.138;2024-02-23T04:12:02;98511.19;;;6.62;100.00
13348;BME280;6743;49.934;9.138;2024-02-23T04:14:28;98524.78;;;6.66;100.00
13348;BME280;6743;49.934;9.138;2024-02-23T04:16:55;98530.25;;;6.64;100.00
13348;BME280;6743;49.934;9.138;2024-02-23T04:19:21;98523.97;;;6.65;100.00
13348;BME280;6743;49.934;9.138;2024-02-23T04:21:49;98527.09;;;6.69;100.00
13348;BME280;6743;49.934;9.138;2024-02-23T04:24:15;98523.53;;;6.62;100.00
13348;BME280;6743;49.934;9.138;2024-02-23T04:26:41;98530.87;;;6.66;100.00
13348;BME280;6743;49.934;9.138;2024-02-23T04:29:07;98538.78;;;6.66;100.00
13348;BME280;6743;49.934;9.138;2024-02-23T04:31:36;98550.31;;;6.65;100.00
13348;BME280;6743;49.934;9.138;2024-02-23T04:34:02;98556.78;;;6.63;100.00
13348;BME280;6743;49.934;9.138;2024-02-23T04:36:28;98558.41;;;6.64;100.00
13348;BME280;6743;49.934;9.138;2024-02-23T04:38:54;98557.97;;;6.60;100.00
13348;BME280;6743;49.934;9.138;2024-02-23T04:41:23;98566.69;;;6.61;100.00
13348;BME280;6743;49.934;9.138;2024-02-23T04:43:50;98565.88;;;6.60;100.00
13348;BME280;6743;49.934;9.138;2024-02-23T04:46:16;98569.16;;;6.62;100.00
13348;BME280;6743;49.934;9.138;2024-02-23T04:48:42;98583.31;;;6.61;100.00
13348;BME280;6743;49.934;9.138;2024-02-23T04:51:09;98567.84;;;6.58;100.00
13348;BME280;6743;49.934;9.138;2024-02-23T04:53:36;98560.94;;;6.57;100.00
13348;BME280;6743;49.934;9.138;2024-02-23T04:56:03;98559.34;;;6.56;100.00
13348;BME280;6743;49.934;9.138;2024-02-23T04:58:29;98562.13;;;6.55;100.00
13348;BME280;6743;49.934;9.138;2024-02-23T05:00:55;98545.69;;;6.53;100.00
13348;BME280;6743;49.934;9.138;2024-02-23T05:03:21;98547.34;;;6.54;100.00
13348;BME280;6743;49.934;9.138;2024-02-23T05:05:47;98537.63;;;6.54;100.00
13348;BME280;6743;49.934;9.138;2024-02-23T05:08:14;98536.16;;;6.52;100.00
13348;BME280;6743;49.934;9.138;2024-02-23T05:10:42;98541.59;;;6.50;100.00
13348;BME280;6743;49.934;9.138;2024-02-23T05:13:08;98542.63;;;6.49;100.00
13348;BME280;6743;49.934;9.138;2024-02-23T05:15:34;98539.16;;;6.49;100.00
13348;BME280;6743;49.934;9.138;2024-02-23T05:18:00;98537.53;;;6.48;100.00
13348;BME280;6743;49.934;9.138;2024-02-23T05:20:26;98535.88;;;6.47;100.00
13348;BME280;6743;49.934;9.138;2024-02-23T05:22:52;98525.16;;;6.48;100.00
13348;BME280;6743;49.934;9.138;2024-02-23T05:25:19;98537.53;;;6.48;100.00
13348;BME280;6743;49.934;9.138;2024-02-23T05:27:45;98517.06;;;6.35;100.00
13348;BME280;6743;49.934;9.138;2024-02-23T05:30:12;98527.50;;;6.43;100.00
13348;BME280;6743;49.934;9.138;2024-02-23T05:32:38;98524.44;;;6.40;100.00
13348;BME280;6743;49.934;9.138;2024-02-23T05:35:05;98531.69;;;6.38;100.00
13348;BME280;6743;49.934;9.138;2024-02-23T05:37:32;98532.50;;;6.38;100.00
13348;BME280;6743;49.934;9.138;2024-02-23T05:39:58;98519.50;;;6.37;100.00
13348;BME280;6743;49.934;9.138;2024-02-23T05:42:25;98530.03;;;6.37;100.00
13348;BME280;6743;49.934;9.138;2024-02-23T05:44:51;98545.41;;;6.33;100.00
13348;BME280;6743;49.934;9.138;2024-02-23T05:47:17;98547.03;;;6.34;100.00
13348;BME280;6743;49.934;9.138;2024-02-23T05:49:43;98542.75;;;6.33;100.00
13348;BME280;6743;49.934;9.138;2024-02-23T05:52:09;98526.94;;;6.18;100.00
13348;BME280;6743;49.934;9.138;2024-02-23T05:54:35;98551.31;;;6.35;100.00
13348;BME280;6743;49.934;9.138;2024-02-23T05:57:01;98553.94;;;6.35;100.00
13348;BME280;6743;49.934;9.138;2024-02-23T05:59:29;98557.56;;;6.34;100.00
13348;BME280;6743;49.934;9.138;2024-02-23T06:01:55;98556.59;;;6.35;100.00
13348;BME280;6743;49.934;9.138;2024-02-23T06:04:22;98561.03;;;6.35;100.00
13348;BME280;6743;49.934;9.138;2024-02-23T06:06:48;98566.91;;;6.37;100.00
13348;BME280;6743;49.934;9.138;2024-02-23T06:09:14;98544.31;;;6.27;100.00
13348;BME280;6743;49.934;9.138;2024-02-23T06:11:41;98553.56;;;6.38;100.00
13348;BME280;6743;49.934;9.138;2024-02-23T06:14:07;98545.56;;;6.31;100.00
13348;BME280;6743;49.934;9.138;2024-02-23T06:16:34;98563.28;;;6.38;100.00
13348;BME280;6743;49.934;9.138;2024-02-23T06:19:00;98566.13;;;6.36;100.00
13348;BME280;6743;49.934;9.138;2024-02-23T06:21:26;98575.19;;;6.33;100.00
13348;BME280;6743;49.934;9.138;2024-02-23T06:23:53;98569.44;;;6.30;100.00
13348;BME280;6743;49.934;9.138;2024-02-23T06:26:18;98574.72;;;6.30;100.00
13348;BME280;6743;49.934;9.138;2024-02-23T06:28:44;98585.25;;;6.30;100.00
13348;BME280;6743;49.934;9.138;2024-02-23T06:31:10;98571.47;;;6.28;100.00
13348;BME280;6743;49.934;9.138;2024-02-23T06:33:37;98572.44;;;6.27;100.00
13348;BME280;6743;49.934;9.138;2024-02-23T06:36:04;98587.44;;;6.26;100.00
13348;BME280;6743;49.934;9.138;2024-02-23T06:38:30;98579.34;;;6.28;100.00
13348;BME280;6743;49.934;9.138;2024-02-23T06:40:56;98576.41;;;6.23;100.00
13348;BME280;6743;49.934;9.138;2024-02-23T06:43:21;98583.31;;;6.24;100.00
13348;BME280;6743;49.934;9.138;2024-02-23T06:45:47;98596.44;;;6.32;100.00
13348;BME280;6743;49.934;9.138;2024-02-23T06:48:13;98596.59;;;6.30;100.00
13348;BME280;6743;49.934;9.138;2024-02-23T06:50:40;98596.44;;;6.32;100.00
13348;BME280;6743;49.934;9.138;2024-02-23T06:53:06;98594.44;;;6.34;100.00
13348;BME280;6743;49.934;9.138;2024-02-23T06:55:33;98611.88;;;6.35;100.00
13348;BME280;6743;49.934;9.138;2024-02-23T06:58:00;98604.59;;;6.37;100.00
13348;BME280;6743;49.934;9.138;2024-02-23T07:00:25;98614.16;;;6.38;100.00
13348;BME280;6743;49.934;9.138;2024-02-23T07:02:51;98611.50;;;6.38;100.00
13348;BME280;6743;49.934;9.138;2024-02-23T07:05:17;98614.63;;;6.42;100.00
13348;BME280;6743;49.934;9.138;2024-02-23T07:07:46;98609.97;;;6.44;100.00
13348;BME280;6743;49.934;9.138;2024-02-23T07:10:12;98607.16;;;6.45;100.00
13348;BME280;6743;49.934;9.138;2024-02-23T07:12:38;98608.81;;;6.46;100.00
13348;BME280;6743;49.934;9.138;2024-02-23T07:15:05;98606.81;;;6.48;100.00
13348;BME280;6743;49.934;9.138;2024-02-23T07:17:31;98604.81;;;6.50;100.00
13348;BME280;6743;49.934;9.138;2024-02-23T07:19:57;98603.00;;;6.51;100.00
13348;BME280;6743;49.934;9.138;2024-02-23T07:22:30;98607.44;;;6.50;100.00
13348;BME280;6743;49.934;9.138;2024-02-23T07:24:57;98607.44;;;6.50;100.00
13348;BME280;6743;49.934;9.138;2024-02-23T07:27:23;98609.72;;;6.53;100.00
13348;BME280;6743;49.934;9.138;2024-02-23T07:29:49;98611.72;;;6.51;100.00
13348;BME280;6743;49.934;9.138;2024-02-23T07:32:15;98606.28;;;6.53;100.00
13348;BME280;6743;49.934;9.138;2024-02-23T07:34:41;98607.09;;;6.53;100.00
13348;BME280;6743;49.934;9.138;2024-02-23T07:37:07;98609.91;;;6.52;100.00
13348;BME280;6743;49.934;9.138;2024-02-23T07:39:33;98613.75;;;6.49;100.00
13348;BME280;6743;49.934;9.138;2024-02-23T07:41:59;98621.63;;;6.49;100.00
13348;BME280;6743;49.934;9.138;2024-02-23T07:44:25;98618.19;;;6.49;100.00
13348;BME280;6743;49.934;9.138;2024-02-23T07:46:51;98626.09;;;6.49;100.00
13348;BME280;6743;49.934;9.138;2024-02-23T07:49:19;98627.06;;;6.48;100.00
13348;BME280;6743;49.934;9.138;2024-02-23T07:51:45;98626.25;;;6.47;100.00
13348;BME280;6743;49.934;9.138;2024-02-23T07:54:11;98591.59;;;6.21;100.00
13348;BME280;6743;49.934;9.138;2024-02-23T07:56:37;98634.97;;;6.48;100.00
13348;BME280;6743;49.934;9.138;2024-02-23T07:59:04;98634.81;;;6.49;100.00
13348;BME280;6743;49.934;9.138;2024-02-23T08:01:30;98632.78;;;6.51;100.00
13348;BME280;6743;49.934;9.138;2024-02-23T08:03:57;98646.78;;;6.52;100.00
13348;BME280;6743;49.934;9.138;2024-02-23T08:06:23;98643.31;;;6.51;100.00
13348;BME280;6743;49.934;9.138;2024-02-23T08:08:49;98651.22;;;6.51;100.00
13348;BME280;6743;49.934;9.138;2024-02-23T08:11:15;98654.69;;;6.52;100.00
13348;BME280;6743;49.934;9.138;2024-02-23T08:13:41;98648.59;;;6.51;100.00
13348;BME280;6743;49.934;9.138;2024-02-23T08:16:10;98651.44;;;6.50;100.00
13348;BME280;6743;49.934;9.138;2024-02-23T08:18:36;98649.78;;;6.49;100.00
13348;BME280;6743;49.934;9.138;2024-02-23T08:21:03;98650.63;;;6.49;100.00
13348;BME280;6743;49.934;9.138;2024-02-23T08:23:31;98663.41;;;6.52;100.00
13348;BME280;6743;49.934;9.138;2024-02-23T08:25:57;98658.97;;;6.53;100.00
13348;BME280;6743;49.934;9.138;2024-02-23T08:28:23;98657.81;;;6.55;100.00
13348;BME280;6743;49.934;9.138;2024-02-23T08:30:49;98665.34;;;6.58;100.00
13348;BME280;6743;49.934;9.138;2024-02-23T08:33:16;98664.00;;;6.62;100.00
13348;BME280;6743;49.934;9.138;2024-02-23T08:35:42;98667.25;;;6.64;100.00
13348;BME280;6743;49.934;9.138;2024-02-23T08:38:08;98667.91;;;6.66;100.00
13348;BME280;6743;49.934;9.138;2024-02-23T08:40:35;98664.53;;;6.72;100.00
13348;BME280;6743;49.934;9.138;2024-02-23T08:43:00;98676.19;;;6.78;100.00
13348;BME280;6743;49.934;9.138;2024-02-23T08:45:26;98666.13;;;6.82;100.00
13348;BME280;6743;49.934;9.138;2024-02-23T08:47:52;98669.41;;;6.84;100.00
13348;BME280;6743;49.934;9.138;2024-02-23T08:50:19;98660.94;;;6.88;100.00
13348;BME280;6743;49.934;9.138;2024-02-23T08:52:45;98655.94;;;6.93;100.00
13348;BME280;6743;49.934;9.138;2024-02-23T08:55:11;98648.41;;;6.90;100.00
13348;BME280;6743;49.934;9.138;2024-02-23T08:57:38;98663.59;;;7.03;100.00
13348;BME280;6743;49.934;9.138;2024-02-23T09:00:04;98658.59;;;7.08;100.00
13348;BME280;6743;49.934;9.138;2024-02-23T09:02:30;98659.06;;;7.11;100.00
13348;BME280;6743;49.934;9.138;2024-02-23T09:04:57;98655.41;;;7.12;100.00
13348;BME280;6743;49.934;9.138;2024-02-23T09:07:24;98657.34;;;7.19;100.00
13348;BME280;6743;49.934;9.138;2024-02-23T09:09:50;98653.66;;;7.20;100.00
13348;BME280;6743;49.934;9.138;2024-02-23T09:12:16;98650.44;;;7.18;100.00
13348;BME280;6743;49.934;9.138;2024-02-23T09:14:42;98655.69;;;7.18;100.00
13348;BME280;6743;49.934;9.138;2024-02-23T09:17:08;98650.88;;;7.21;100.00
13348;BME280;6743;49.934;9.138;2024-02-23T09:19:35;98650.69;;;7.23;100.00
13348;BME280;6743;49.934;9.138;2024-02-23T09:22:01;98649.69;;;7.24;100.00
13348;BME280;6743;49.934;9.138;2024-02-23T09:24:28;98648.06;;;7.23;100.00
13348;BME280;6743;49.934;9.138;2024-02-23T09:26:54;98633.78;;;7.17;100.00
13348;BME280;6743;49.934;9.138;2024-02-23T09:29:21;98643.84;;;7.28;100.00
13348;BME280;6743;49.934;9.138;2024-02-23T09:31:47;98640.22;;;7.29;100.00
13348;BME280;6743;49.934;9.138;2024-02-23T09:34:13;98638.66;;;7.35;100.00
13348;BME280;6743;49.934;9.138;2024-02-23T09:36:39;98620.69;;;7.24;100.00
13348;BME280;6743;49.934;9.138;2024-02-23T09:39:05;98644.03;;;7.41;100.00
13348;BME280;6743;49.934;9.138;2024-02-23T09:41:32;98649.12;;;7.43;100.00
13348;BME280;6743;49.934;9.138;2024-02-23T09:44:02;98640.66;;;7.47;100.00
13348;BME280;6743;49.934;9.138;2024-02-23T09:46:28;98642.75;;;7.52;100.00
13348;BME280;6743;49.934;9.138;2024-02-23T09:48:55;98640.38;;;7.57;100.00
13348;BME280;6743;49.934;9.138;2024-02-23T09:51:22;98643.44;;;7.61;100.00
13348;BME280;6743;49.934;9.138;2024-02-23T09:53:49;98649.75;;;7.60;100.00
13348;BME280;6743;49.934;9.138;2024-02-23T09:56:16;98628.09;;;7.49;100.00
13348;BME280;6743;49.934;9.138;2024-02-23T09:58:43;98647.72;;;7.62;100.00
13348;BME280;6743;49.934;9.138;2024-02-23T10:01:11;98646.09;;;7.61;100.00
13348;BME280;6743;49.934;9.138;2024-02-23T10:03:37;98646.91;;;7.61;100.00
13348;BME280;6743;49.934;9.138;2024-02-23T10:06:04;98652.19;;;7.61;100.00
13348;BME280;6743;49.934;9.138;2024-02-23T10:08:30;98650.44;;;7.68;100.00
13348;BME280;6743;49.934;9.138;2024-02-23T10:10:56;98644.72;;;7.65;100.00
13348;BME280;6743;49.934;9.138;2024-02-23T10:13:23;98645.44;;;7.73;100.00
13348;BME280;6743;49.934;9.138;2024-02-23T10:15:50;98644.22;;;7.76;100.00
13348;BME280;6743;49.934;9.138;2024-02-23T10:18:16;98642.41;;;7.76;100.00
13348;BME280;6743;49.934;9.138;2024-02-23T10:20:42;98650.34;;;7.76;100.00
13348;BME280;6743;49.934;9.138;2024-02-23T10:23:09;98648.75;;;7.82;100.00
13348;BME280;6743;49.934;9.138;2024-02-23T10:25:35;98646.50;;;7.79;100.00
13348;BME280;6743;49.934;9.138;2024-02-23T10:28:01;98656.22;;;7.93;100.00
13348;BME280;6743;49.934;9.138;2024-02-23T10:30:27;98653.41;;;7.95;100.00
13348;BME280;6743;49.934;9.138;2024-02-23T10:32:56;98646.03;;;7.90;100.00
13348;BME280;6743;49.934;9.138;2024-02-23T10:35:23;98657.28;;;7.99;100.00
13348;BME280;6743;49.934;9.138;2024-02-23T10:37:50;98651.56;;;7.95;100.00
13348;BME280;6743;49.934;9.138;2024-02-23T10:40:18;98665.28;;;8.05;100.00
13348;BME280;6743;49.934;9.138;2024-02-23T10:42:45;98663.69;;;8.11;100.00
13348;BME280;6743;49.934;9.138;2024-02-23T10:45:14;98644.91;;;7.99;100.00
13348;BME280;6743;49.934;9.138;2024-02-23T10:47:41;98667.63;;;8.15;100.00
13348;BME280;6743;49.934;9.138;2024-02-23T10:50:09;98673.09;;;8.13;100.00
13348;BME280;6743;49.934;9.138;2024-02-23T10:52:40;98658.16;;;8.06;100.00
13348;BME280;6743;49.934;9.138;2024-02-23T10:55:08;98641.25;;;8.00;100.00
13348;BME280;6743;49.934;9.138;2024-02-23T10:57:35;98654.97;;;8.10;100.00
13348;BME280;6743;49.934;9.138;2024-02-23T11:00:02;98638.81;;;7.99;100.00
13348;BME280;6743;49.934;9.138;2024-02-23T11:02:31;98658.00;;;8.07;100.00
13348;BME280;6743;49.934;9.138;2024-02-23T11:04:59;98648.44;;;8.06;100.00
13348;BME280;6743;49.934;9.138;2024-02-23T11:07:26;98654.53;;;8.07;100.00
13348;BME280;6743;49.934;9.138;2024-02-23T11:09:53;98656.34;;;8.06;100.00
13348;BME280;6743;49.934;9.138;2024-02-23T11:12:23;98649.88;;;8.09;100.00
13348;BME280;6743;49.934;9.138;2024-02-23T11:14:50;98656.78;;;8.10;100.00
13348;BME280;6743;49.934;9.138;2024-02-23T11:17:18;98660.06;;;8.12;100.00
13348;BME280;6743;49.934;9.138;2024-02-23T11:19:46;98649.31;;;8.13;100.00
13348;BME280;6743;49.934;9.138;2024-02-23T11:22:12;98648.12;;;8.16;100.00
13348;BME280;6743;49.934;9.138;2024-02-23T11:24:42;98647.56;;;8.20;100.00
13348;BME280;6743;49.934;9.138;2024-02-23T11:27:13;98645.97;;;8.26;100.00
13348;BME280;6743;49.934;9.138;2024-02-23T11:29:40;98638.06;;;8.26;100.00
13348;BME280;6743;49.934;9.138;2024-02-23T11:32:12;98626.22;;;8.37;100.00
13348;BME280;6743;49.934;9.138;2024-02-23T11:34:39;98628.25;;;8.41;100.00
13348;BME280;6743;49.934;9.138;2024-02-23T11:37:09;98625.88;;;8.46;100.00
13348;BME280;6743;49.934;9.138;2024-02-23T11:39:37;98626.91;;;8.52;100.00
13348;BME280;6743;49.934;9.138;2024-02-23T11:42:05;98621.25;;;8.55;100.00
13348;BME280;6743;49.934;9.138;2024-02-23T11:44:31;98622.91;;;8.56;100.00
13348;BME280;6743;49.934;9.138;2024-02-23T11:46:58;98619.44;;;8.55;100.00
13348;BME280;6743;49.934;9.138;2024-02-23T11:49:27;98618.03;;;8.59;100.00
13348;BME280;6743;49.934;9.138;2024-02-23T11:51:54;98598.25;;;8.49;100.00
13348;BME280;6743;49.934;9.138;2024-02-23T11:54:20;98619.50;;;8.62;100.00
13348;BME280;6743;49.934;9.138;2024-02-23T11:56:47;98613.37;;;8.61;100.00
13348;BME280;6743;49.934;9.138;2024-02-23T11:59:15;98603.41;;;8.57;100.00
13348;BME280;6743;49.934;9.138;2024-02-23T12:01:41;98607.91;;;8.63;100.00
13348;BME280;6743;49.934;9.138;2024-02-23T12:04:07;98608.50;;;8.65;100.00
13348;BME280;6743;49.934;9.138;2024-02-23T12:06:33;98603.84;;;8.67;100.00
13348;BME280;6743;49.934;9.138;2024-02-23T12:09:00;98609.59;;;8.71;100.00
13348;BME280;6743;49.934;9.138;2024-02-23T12:11:27;98600.97;;;8.62;100.00
13348;BME280;6743;49.934;9.138;2024-02-23T12:13:53;98620.34;;;8.69;100.00
13348;BME280;6743;49.934;9.138;2024-02-23T12:16:21;98605.69;;;8.66;100.00
13348;BME280;6743;49.934;9.138;2024-02-23T12:18:52;98607.69;;;8.64;100.00
13348;BME280;6743;49.934;9.138;2024-02-23T12:21:19;98613.19;;;8.63;100.00
13348;BME280;6743;49.934;9.138;2024-02-23T12:23:45;98607.91;;;8.63;100.00
13348;BME280;6743;49.934;9.138;2024-02-23T12:26:14;98607.91;;;8.63;100.00
13348;BME280;6743;49.934;9.138;2024-02-23T12:28:40;98582.84;;;8.59;100.00
13348;BME280;6743;49.934;9.138;2024-02-23T12:31:07;98600.03;;;8.69;100.00
13348;BME280;6743;49.934;9.138;2024-02-23T12:33:35;98595.16;;;8.73;100.00
13348;BME280;6743;49.934;9.138;2024-02-23T12:36:02;98582.34;;;8.70;100.00
13348;BME280;6743;49.934;9.138;2024-02-23T12:38:28;98600.94;;;8.83;100.00
13348;BME280;6743;49.934;9.138;2024-02-23T12:40:54;98599.34;;;8.89;100.00
13348;BME280;6743;49.934;9.138;2024-02-23T12:43:20;98591.81;;;8.92;100.00
13348;BME280;6743;49.934;9.138;2024-02-23T12:45:48;98591.44;;;8.95;100.00
13348;BME280;6743;49.934;9.138;2024-02-23T12:48:14;98598.19;;;8.98;100.00
13348;BME280;6743;49.934;9.138;2024-02-23T12:50:41;98587.00;;;9.02;100.00
13348;BME280;6743;49.934;9.138;2024-02-23T12:53:08;98589.03;;;9.07;100.00
13348;BME280;6743;49.934;9.138;2024-02-23T12:55:34;98581.72;;;9.02;100.00
13348;BME280;6743;49.934;9.138;2024-02-23T12:58:02;98579.53;;;9.13;100.00
13348;BME280;6743;49.934;9.138;2024-02-23T13:00:28;98582.59;;;9.16;100.00
13348;BME280;6743;49.934;9.138;2024-02-23T13:02:54;98581.41;;;9.19;100.00
13348;BME280;6743;49.934;9.138;2024-02-23T13:05:20;98572.84;;;9.23;100.00